KDLO

Delano Municipal Airport

Delano, California, USA
METAR KDLO 231055Z AUTO 23003KT 10SM CLR 15/07 A2985 RMK AO2 T01520074
Observed Flight Rules
May-23 @ 10:55 UTC (22 minutes ago) Visual Flight Rules
Wind Visibility Clouds
230° at 3 knots 10 miles
  • Clear skies
Temperatures Readings
Current 15°C / 59°F
Dewpoint 7°C / 45°F
Humidity 59%
Altimeter 29.85" Hg
Pressure 1011 hPa
Elevation 96
METAR KDLO 231055Z AUTO 23003KT 10SM CLR 15/07 A2985 RMK AO2 T01520074
Observed Flight Rules
May-23 @ 10:55 UTC
(22 minutes ago)
VFR
Wind Visibility
230° at 3 knots 10 miles
Clouds
  • Clear skies
Temperature Dewpoint
15°C / 59°F 7°C / 45°F
Humidity Altimeter Pressure
59% 29.85" Hg 1011 hPa